createdAt,value
2023-04-15T00:00:38.418Z,97910.59
2023-04-15T00:01:39.999Z,97922.22
2023-04-15T00:02:42.262Z,97928.50
2023-04-15T00:03:44.052Z,97923.72
2023-04-15T00:04:46.731Z,97922.22
2023-04-15T00:05:48.388Z,97913.53
2023-04-15T00:06:51.400Z,97922.22
2023-04-15T00:07:52.962Z,97914.38
2023-04-15T00:08:54.516Z,97924.63
2023-04-15T00:09:56.096Z,97930.28
2023-04-15T00:10:57.665Z,97924.53
2023-04-15T00:11:59.207Z,97925.25
2023-04-15T00:13:01.302Z,97922.00
2023-04-15T00:14:02.824Z,97927.72
2023-04-15T00:15:04.783Z,97932.25
2023-04-15T00:16:07.508Z,97935.16
2023-04-15T00:17:09.013Z,97933.06
2023-04-15T00:18:10.587Z,97931.81
2023-04-15T00:19:12.262Z,97938.41
2023-04-15T00:20:13.836Z,97928.38
2023-04-15T00:21:15.411Z,97929.84
2023-04-15T00:22:16.967Z,97929.50
2023-04-15T00:23:18.522Z,97930.09
2023-04-15T00:24:20.074Z,97926.34
2023-04-15T00:25:21.624Z,97929.63
2023-04-15T00:26:23.207Z,97926.19
2023-04-15T00:27:24.816Z,97925.78
2023-04-15T00:28:26.381Z,97921.16
2023-04-15T00:29:27.911Z,97920.63
2023-04-15T00:30:29.499Z,97938.59
2023-04-15T00:31:32.122Z,97937.47
2023-04-15T00:32:33.666Z,97934.72
2023-04-15T00:33:35.211Z,97940.63
2023-04-15T00:34:36.783Z,97945.06
2023-04-15T00:35:38.446Z,97946.53
2023-04-15T00:36:40.027Z,97943.78
2023-04-15T00:37:41.666Z,97942.50
2023-04-15T00:38:43.599Z,97946.28
2023-04-15T00:39:45.168Z,97943.22
2023-04-15T00:40:46.754Z,97942.75
2023-04-15T00:41:49.111Z,97945.09
2023-04-15T00:42:51.260Z,97946.75
2023-04-15T00:43:52.819Z,97948.28
2023-04-15T00:44:54.385Z,97954.63
2023-04-15T00:45:59.483Z,97951.22
2023-04-15T00:47:01.206Z,97953.22
2023-04-15T00:48:03.427Z,97955.56
2023-04-15T00:49:06.291Z,97953.75
2023-04-15T00:50:08.924Z,97957.06
2023-04-15T00:51:10.480Z,97962.53
2023-04-15T00:52:12.124Z,97958.00
2023-04-15T00:53:13.712Z,97960.13
2023-04-15T00:54:15.719Z,97969.22
2023-04-15T00:55:17.713Z,97969.59
2023-04-15T00:56:21.646Z,97970.81
2023-04-15T00:57:23.217Z,97966.38
2023-04-15T00:58:24.832Z,97970.13
2023-04-15T00:59:27.085Z,97972.59
2023-04-15T01:00:30.089Z,97971.63
2023-04-15T01:01:37.742Z,97971.84
2023-04-15T01:02:39.645Z,97980.41
2023-04-15T01:03:41.674Z,97979.44
2023-04-15T01:04:43.379Z,97981.22
2023-04-15T01:05:44.981Z,97981.88
2023-04-15T01:06:46.879Z,97983.84
2023-04-15T01:07:48.614Z,97986.84
2023-04-15T01:08:50.789Z,97989.59
2023-04-15T01:09:52.785Z,97986.00
2023-04-15T01:11:00.969Z,97979.78
2023-04-15T01:12:04.587Z,97983.38
2023-04-15T01:13:06.163Z,97977.63
2023-04-15T01:14:09.646Z,97981.34
2023-04-15T01:15:11.633Z,97980.53
2023-04-15T01:16:14.369Z,97981.13
2023-04-15T01:17:17.689Z,97982.94
2023-04-15T01:18:19.838Z,97987.06
2023-04-15T01:19:21.420Z,97978.13
2023-04-15T01:20:23.006Z,97982.09
2023-04-15T01:21:24.835Z,97982.94
2023-04-15T01:22:27.693Z,97988.97
2023-04-15T01:23:29.652Z,97995.78
2023-04-15T01:24:32.643Z,98001.25
2023-04-15T01:25:34.627Z,97992.91
2023-04-15T01:26:38.330Z,98001.63
2023-04-15T01:27:42.419Z,97998.38
2023-04-15T01:28:44.726Z,98000.63
2023-04-15T01:29:46.323Z,97986.88
2023-04-15T01:30:48.022Z,97996.56
2023-04-15T01:31:54.941Z,97993.25
2023-04-15T01:32:56.652Z,97991.34
2023-04-15T01:33:58.827Z,97997.56
2023-04-15T01:35:00.428Z,97990.81
2023-04-15T01:36:02.530Z,97985.19
2023-04-15T01:37:04.089Z,97986.03
2023-04-15T01:38:07.664Z,97988.63
2023-04-15T01:39:09.478Z,97994.53
2023-04-15T01:40:11.302Z,97994.28
2023-04-15T01:41:14.006Z,97994.97
2023-04-15T01:42:15.590Z,97997.03
2023-04-15T01:43:17.546Z,97997.03
2023-04-15T01:44:19.145Z,97997.16
2023-04-15T01:45:20.705Z,97997.44
2023-04-15T01:46:22.922Z,98000.06
2023-04-15T01:47:24.513Z,98003.50
2023-04-15T01:48:26.060Z,98001.88
2023-04-15T01:49:27.634Z,98008.19
2023-04-15T01:50:29.219Z,98002.69
2023-04-15T01:51:30.794Z,98008.88
2023-04-15T01:52:32.470Z,98015.63
2023-04-15T01:53:34.070Z,98009.56
2023-04-15T01:54:37.002Z,98014.50
2023-04-15T01:55:38.577Z,98006.00
2023-04-15T01:56:40.102Z,98006.41
2023-04-15T01:57:41.733Z,98006.81
2023-04-15T01:58:43.296Z,98011.50
2023-04-15T01:59:45.498Z,98019.06
2023-04-15T02:00:47.084Z,98017.97
2023-04-15T02:01:49.045Z,98015.47
2023-04-15T02:02:50.777Z,98014.50
2023-04-15T02:03:52.421Z,98012.31
2023-04-15T02:04:54.124Z,98020.00
2023-04-15T02:05:55.702Z,98013.44
2023-04-15T02:06:57.338Z,98021.41
2023-04-15T02:07:58.895Z,98017.81
2023-04-15T02:09:00.711Z,98015.47
2023-04-15T02:10:02.477Z,98017.69
2023-04-15T02:11:04.086Z,98017.69
2023-04-15T02:12:06.690Z,98012.59
2023-04-15T02:13:08.267Z,98013.44
2023-04-15T02:14:09.849Z,98012.06
2023-04-15T02:15:11.387Z,98018.50
2023-04-15T02:16:19.275Z,98015.47
2023-04-15T02:17:20.950Z,98024.97
2023-04-15T02:18:22.528Z,98014.78
2023-04-15T02:19:24.129Z,98019.75
2023-04-15T02:20:25.674Z,98024.41
2023-04-15T02:21:27.421Z,98023.88
2023-04-15T02:22:28.980Z,98024.13
2023-04-15T02:23:30.508Z,98019.16
2023-04-15T02:24:32.102Z,98018.88
2023-04-15T02:25:33.670Z,98023.69
2023-04-15T02:26:35.206Z,98021.88
2023-04-15T02:27:36.791Z,98034.53
2023-04-15T02:28:38.360Z,98031.63
2023-04-15T02:29:40.674Z,98034.66
2023-04-15T02:30:42.792Z,98041.41
2023-04-15T02:31:44.422Z,98036.97
2023-04-15T02:32:46.072Z,98040.31
2023-04-15T02:33:47.630Z,98039.75
2023-04-15T02:34:49.203Z,98039.47
2023-04-15T02:35:50.814Z,98042.09
2023-04-15T02:36:52.387Z,98041.09
2023-04-15T02:37:53.958Z,98037.13
2023-04-15T02:38:55.542Z,98039.34
2023-04-15T02:39:57.728Z,98041.28
2023-04-15T02:40:59.514Z,98036.59
2023-04-15T02:42:01.219Z,98043.47
2023-04-15T02:43:02.934Z,98040.44
2023-04-15T02:44:04.665Z,98042.25
2023-04-15T02:45:07.240Z,98040.31
2023-04-15T02:46:10.040Z,98046.63
2023-04-15T02:47:13.252Z,98041.56
2023-04-15T02:48:14.831Z,98043.22
2023-04-15T02:49:16.493Z,98041.16
2023-04-15T02:50:18.024Z,98051.88
2023-04-15T02:51:21.465Z,98042.94
2023-04-15T02:52:23.041Z,98052.56
2023-04-15T02:53:24.605Z,98051.34
2023-04-15T02:54:26.453Z,98050.38
2023-04-15T02:55:28.630Z,98051.63
2023-04-15T02:56:30.339Z,98050.81
2023-04-15T02:57:31.916Z,98048.19
2023-04-15T02:58:40.140Z,98052.16
2023-04-15T02:59:41.743Z,98049.41
2023-04-15T03:00:43.397Z,98050.22
2023-04-15T03:01:45.103Z,98052.03
2023-04-15T03:02:47.257Z,98055.16
2023-04-15T03:03:49.116Z,98051.34
2023-04-15T03:04:50.810Z,98054.25
2023-04-15T03:05:52.381Z,98058.56
2023-04-15T03:06:54.158Z,98061.72
2023-04-15T03:07:55.858Z,98052.22
2023-04-15T03:08:57.445Z,98057.47
2023-04-15T03:09:59.003Z,98056.47
2023-04-15T03:11:00.901Z,98054.72
2023-04-15T03:12:02.909Z,98055.25
2023-04-15T03:13:04.752Z,98053.72
2023-04-15T03:14:06.430Z,98053.44
2023-04-15T03:15:10.598Z,98058.00
2023-04-15T03:16:16.696Z,98056.47
2023-04-15T03:17:18.418Z,98051.50
2023-04-15T03:18:20.083Z,98052.19
2023-04-15T03:19:21.657Z,98045.59
2023-04-15T03:20:23.224Z,98061.41
2023-04-15T03:21:24.844Z,98054.81
2023-04-15T03:22:26.560Z,98062.06
2023-04-15T03:23:28.865Z,98056.97
2023-04-15T03:24:31.291Z,98064.28
2023-04-15T03:25:33.120Z,98057.97
2023-04-15T03:26:35.275Z,98063.72
2023-04-15T03:27:43.552Z,98062.38
2023-04-15T03:28:46.350Z,98059.22
2023-04-15T03:29:49.963Z,98063.38
2023-04-15T03:30:52.614Z,98059.50
2023-04-15T03:31:54.194Z,98064.34
2023-04-15T03:32:56.063Z,98065.16
2023-04-15T03:33:57.675Z,98073.53
2023-04-15T03:34:59.423Z,98077.81
2023-04-15T03:36:00.997Z,98070.66
2023-04-15T03:37:02.556Z,98071.50
2023-04-15T03:38:04.167Z,98075.19
2023-04-15T03:39:05.722Z,98079.06
2023-04-15T03:40:08.085Z,98072.03
2023-04-15T03:41:09.706Z,98077.81
2023-04-15T03:42:11.274Z,98080.97
2023-04-15T03:43:12.795Z,98079.19
2023-04-15T03:44:14.357Z,98079.19
2023-04-15T03:45:15.939Z,98074.50
2023-04-15T03:46:18.349Z,98072.13
2023-04-15T03:47:20.022Z,98082.31
2023-04-15T03:48:21.753Z,98074.06
2023-04-15T03:49:23.407Z,98074.34
2023-04-15T03:50:25.021Z,98078.13
2023-04-15T03:51:26.587Z,98075.66
2023-04-15T03:52:28.151Z,98074.56
2023-04-15T03:53:29.687Z,98072.34
2023-04-15T03:54:31.360Z,98080.84
2023-04-15T03:55:32.925Z,98085.50
2023-04-15T03:56:34.508Z,98087.31
2023-04-15T03:57:36.042Z,98084.31
2023-04-15T03:58:37.600Z,98090.59
2023-04-15T03:59:39.140Z,98089.91
2023-04-15T04:00:40.716Z,98091.97
2023-04-15T04:01:42.301Z,98093.81
2023-04-15T04:02:43.925Z,98098.63
2023-04-15T04:03:45.862Z,98100.97
2023-04-15T04:04:47.590Z,98099.88
2023-04-15T04:05:49.579Z,98102.09
2023-04-15T04:06:51.149Z,98107.19
2023-04-15T04:07:52.790Z,98102.78
2023-04-15T04:08:54.324Z,98109.41
2023-04-15T04:09:57.871Z,98109.69
2023-04-15T04:10:59.610Z,98097.19
2023-04-15T04:12:01.191Z,98108.06
2023-04-15T04:13:02.744Z,98109.44
2023-04-15T04:14:04.301Z,98112.19
2023-04-15T04:15:06.390Z,98109.97
2023-04-15T04:16:08.241Z,98110.53
2023-04-15T04:17:10.048Z,98112.06
2023-04-15T04:18:11.614Z,98114.00
2023-04-15T04:19:13.240Z,98125.25
2023-04-15T04:20:14.853Z,98123.75
2023-04-15T04:21:16.973Z,98120.03
2023-04-15T04:22:22.818Z,98111.22
2023-04-15T04:23:24.422Z,98115.22
2023-04-15T04:24:26.002Z,98120.06
2023-04-15T04:25:27.595Z,98127.34
2023-04-15T04:26:29.133Z,98117.72
2023-04-15T04:27:30.677Z,98124.72
2023-04-15T04:28:32.237Z,98116.75
2023-04-15T04:29:33.840Z,98120.75
2023-04-15T04:30:35.948Z,98118.00
2023-04-15T04:31:37.522Z,98124.03
2023-04-15T04:32:39.129Z,98122.97
2023-04-15T04:33:40.817Z,98128.75
2023-04-15T04:34:42.367Z,98125.72
2023-04-15T04:35:43.910Z,98127.91
2023-04-15T04:36:45.454Z,98132.72
2023-04-15T04:37:47.021Z,98132.03
2023-04-15T04:38:48.555Z,98125.44
2023-04-15T04:39:50.074Z,98126.13
2023-04-15T04:40:51.682Z,98120.63
2023-04-15T04:41:53.251Z,98122.13
2023-04-15T04:42:54.799Z,98119.53
2023-04-15T04:43:56.349Z,98120.38
2023-04-15T04:44:57.894Z,98123.22
2023-04-15T04:45:59.494Z,98128.34
2023-04-15T04:47:01.097Z,98121.03
2023-04-15T04:48:02.685Z,98119.78
2023-04-15T04:49:04.513Z,98133.72
2023-04-15T04:50:07.037Z,98120.22
2023-04-15T04:51:08.660Z,98125.84
2023-04-15T04:52:10.205Z,98122.28
2023-04-15T04:53:11.750Z,98125.16
2023-04-15T04:54:13.326Z,98127.66
2023-04-15T04:55:14.871Z,98120.75
2023-04-15T04:56:16.426Z,98116.22
2023-04-15T04:57:18.026Z,98100.53
2023-04-15T04:58:19.582Z,98107.97
2023-04-15T04:59:21.104Z,98104.09
2023-04-15T05:00:22.726Z,98108.78
2023-04-15T05:01:24.369Z,98103.13
2023-04-15T05:02:26.133Z,98109.03
2023-04-15T05:03:27.795Z,98104.06
2023-04-15T05:04:29.548Z,98107.09
2023-04-15T05:05:31.139Z,98104.84
2023-04-15T05:06:32.834Z,98104.44
2023-04-15T05:07:34.414Z,98098.50
2023-04-15T05:08:36.521Z,98110.06
2023-04-15T05:09:38.529Z,98114.72
2023-04-15T05:10:40.134Z,98121.59
2023-04-15T05:11:41.828Z,98128.78
2023-04-15T05:12:43.793Z,98124.63
2023-04-15T05:13:45.396Z,98128.72
2023-04-15T05:14:46.940Z,98132.13
2023-04-15T05:15:48.519Z,98127.25
2023-04-15T05:16:50.119Z,98124.59
2023-04-15T05:17:51.746Z,98138.03
2023-04-15T05:18:53.375Z,98136.06
2023-04-15T05:19:55.248Z,98133.75
2023-04-15T05:20:57.093Z,98136.38
2023-04-15T05:21:58.750Z,98143.75
2023-04-15T05:23:00.332Z,98140.53
2023-04-15T05:24:01.945Z,98146.53
2023-04-15T05:25:03.693Z,98137.09
2023-04-15T05:26:05.353Z,98141.56
2023-04-15T05:27:06.914Z,98144.59
2023-04-15T05:28:08.474Z,98144.59
2023-04-15T05:29:10.023Z,98142.63
2023-04-15T05:30:13.455Z,98144.81
2023-04-15T05:31:15.665Z,98142.25
2023-04-15T05:32:17.425Z,98148.38
2023-04-15T05:33:19.036Z,98148.81
2023-04-15T05:34:20.631Z,98149.75
2023-04-15T05:35:22.184Z,98146.88
2023-04-15T05:36:23.812Z,98147.59
2023-04-15T05:37:25.341Z,98147.38
2023-04-15T05:38:26.896Z,98142.66
2023-04-15T05:39:28.466Z,98148.13
2023-04-15T05:40:31.265Z,98144.56
2023-04-15T05:41:32.980Z,98142.63
2023-04-15T05:42:35.230Z,98145.59
2023-04-15T05:43:36.784Z,98137.56
2023-04-15T05:44:38.401Z,98148.28
2023-04-15T05:45:40.016Z,98146.47
2023-04-15T05:46:41.717Z,98151.25
2023-04-15T05:47:43.453Z,98152.38
2023-04-15T05:48:45.087Z,98149.25
2023-04-15T05:49:46.663Z,98154.34
2023-04-15T05:50:48.291Z,98151.06
2023-04-15T05:51:49.875Z,98156.19
2023-04-15T05:52:51.582Z,98157.69
2023-04-15T05:53:53.220Z,98154.56
2023-04-15T05:54:54.742Z,98152.53
2023-04-15T05:55:56.298Z,98149.88
2023-04-15T05:56:58.110Z,98159.78
2023-04-15T05:57:59.763Z,98156.94
2023-04-15T05:59:01.437Z,98157.88
2023-04-15T06:00:04.394Z,98158.38
2023-04-15T06:01:11.135Z,98158.22
2023-04-15T06:02:12.738Z,98155.72
2023-04-15T06:03:14.554Z,98152.25
2023-04-15T06:04:16.274Z,98158.13
2023-04-15T06:05:18.186Z,98157.25
2023-04-15T06:06:19.771Z,98158.13
2023-04-15T06:07:21.326Z,98156.06
2023-04-15T06:08:22.886Z,98155.03
2023-04-15T06:09:24.480Z,98157.78
2023-04-15T06:10:26.062Z,98163.03
2023-04-15T06:11:27.641Z,98163.50
2023-04-15T06:12:29.393Z,98164.91
2023-04-15T06:13:31.296Z,98163.22
2023-04-15T06:14:32.840Z,98159.19
2023-04-15T06:15:34.416Z,98164.81
2023-04-15T06:16:36.085Z,98164.22
2023-04-15T06:17:37.747Z,98165.91
2023-04-15T06:18:39.319Z,98164.22
2023-04-15T06:19:40.907Z,98164.28
2023-04-15T06:20:42.475Z,98166.81
2023-04-15T06:21:44.529Z,98167.00
2023-04-15T06:22:46.122Z,98162.72
2023-04-15T06:23:47.717Z,98166.38
2023-04-15T06:24:50.454Z,98171.91
2023-04-15T06:25:52.040Z,98168.31
2023-04-15T06:26:53.620Z,98176.63
2023-04-15T06:27:55.196Z,98170.84
2023-04-15T06:28:56.895Z,98174.03
2023-04-15T06:29:58.443Z,98174.94
2023-04-15T06:31:00.218Z,98171.56
2023-04-15T06:32:01.817Z,98179.16
2023-04-15T06:33:03.551Z,98179.66
2023-04-15T06:34:05.216Z,98168.81
2023-04-15T06:35:06.943Z,98175.06
2023-04-15T06:36:08.515Z,98172.91
2023-04-15T06:37:10.081Z,98176.53
2023-04-15T06:38:11.654Z,98173.63
2023-04-15T06:39:13.233Z,98169.75
2023-04-15T06:40:14.892Z,98177.28
2023-04-15T06:41:16.451Z,98171.72
2023-04-15T06:42:18.043Z,98168.81
2023-04-15T06:43:19.579Z,98169.78
2023-04-15T06:44:21.155Z,98165.91
2023-04-15T06:45:22.821Z,98165.13
2023-04-15T06:46:24.617Z,98165.25
2023-04-15T06:47:26.457Z,98169.28
2023-04-15T06:48:28.039Z,98170.81
2023-04-15T06:49:29.887Z,98172.38
2023-04-15T06:50:31.534Z,98179.97
2023-04-15T06:51:35.056Z,98175.31
2023-04-15T06:52:36.658Z,98181.06
2023-04-15T06:53:38.200Z,98184.97
2023-04-15T06:54:39.744Z,98183.25
2023-04-15T06:55:41.601Z,98186.00
2023-04-15T06:56:43.199Z,98188.63
2023-04-15T06:57:44.784Z,98184.34
2023-04-15T06:58:46.343Z,98185.09
2023-04-15T06:59:47.914Z,98185.91
2023-04-15T07:00:49.750Z,98183.16
2023-04-15T07:01:51.400Z,98182.91
2023-04-15T07:02:52.982Z,98193.75
2023-04-15T07:03:54.712Z,98192.72
2023-04-15T07:04:56.396Z,98184.28
2023-04-15T07:05:57.965Z,98187.25
2023-04-15T07:06:59.466Z,98190.63
2023-04-15T07:08:01.044Z,98195.94
2023-04-15T07:09:03.174Z,98196.16
2023-04-15T07:10:05.622Z,98201.34
2023-04-15T07:11:07.353Z,98199.44
2023-04-15T07:12:08.888Z,98203.56
2023-04-15T07:13:10.435Z,98195.41
2023-04-15T07:14:11.947Z,98195.91
2023-04-15T07:15:13.525Z,98202.03
2023-04-15T07:16:15.080Z,98201.50
2023-04-15T07:17:16.753Z,98205.97
2023-04-15T07:18:18.258Z,98207.78
2023-04-15T07:19:19.762Z,98200.59
2023-04-15T07:20:21.324Z,98206.09
2023-04-15T07:21:23.774Z,98199.63
2023-04-15T07:22:25.387Z,98197.53
2023-04-15T07:23:26.915Z,98208.97
2023-04-15T07:24:28.454Z,98207.53
2023-04-15T07:25:29.975Z,98209.47
2023-04-15T07:26:31.526Z,98204.31
2023-04-15T07:27:33.656Z,98203.09
2023-04-15T07:28:35.210Z,98204.28
2023-04-15T07:29:36.784Z,98199.75
2023-04-15T07:30:38.493Z,98192.38
2023-04-15T07:31:40.348Z,98209.03
2023-04-15T07:32:42.810Z,98201.84
2023-04-15T07:33:44.409Z,98202.84
2023-04-15T07:34:46.142Z,98202.13
2023-04-15T07:35:47.676Z,98205.34
2023-04-15T07:36:49.218Z,98203.56
2023-04-15T07:37:50.912Z,98212.22
2023-04-15T07:38:52.489Z,98204.09
2023-04-15T07:39:54.021Z,98202.56
2023-04-15T07:40:55.785Z,98205.44
2023-04-15T07:41:57.893Z,98198.94
2023-04-15T07:42:59.536Z,98211.34
2023-04-15T07:44:01.104Z,98201.25
2023-04-15T07:45:02.922Z,98204.84
2023-04-15T07:46:04.771Z,98208.91
2023-04-15T07:47:06.300Z,98214.66
2023-04-15T07:48:07.834Z,98203.16
2023-04-15T07:49:09.416Z,98208.78
2023-04-15T07:50:11.020Z,98214.63
2023-04-15T07:51:12.560Z,98206.41
2023-04-15T07:52:14.083Z,98207.25
2023-04-15T07:53:15.670Z,98208.59
2023-04-15T07:54:17.192Z,98218.19
2023-04-15T07:55:19.428Z,98201.28
2023-04-15T07:56:20.970Z,98206.41
2023-04-15T07:57:22.542Z,98209.25
2023-04-15T07:58:24.107Z,98217.19
2023-04-15T07:59:25.701Z,98214.28
2023-04-15T08:00:27.284Z,98221.94
2023-04-15T08:01:28.865Z,98219.84
2023-04-15T08:02:30.574Z,98205.41
2023-04-15T08:03:32.416Z,98209.53
2023-04-15T08:04:34.321Z,98212.69
2023-04-15T08:05:36.045Z,98214.41
2023-04-15T08:06:37.577Z,98211.22
2023-04-15T08:07:39.158Z,98208.91
2023-04-15T08:08:40.687Z,98208.28
2023-04-15T08:09:42.217Z,98210.13
2023-04-15T08:10:43.821Z,98220.28
2023-04-15T08:11:45.432Z,98215.63
2023-04-15T08:12:48.689Z,98216.09
2023-04-15T08:13:50.318Z,98216.66
2023-04-15T08:14:51.892Z,98213.84
2023-04-15T08:16:31.838Z,98225.03
2023-04-15T08:17:33.621Z,98227.22
2023-04-15T08:18:35.232Z,98220.84
2023-04-15T08:19:36.771Z,98227.94
2023-04-15T08:20:38.337Z,98225.00
2023-04-15T08:21:39.901Z,98235.38
2023-04-15T08:22:41.486Z,98222.38
2023-04-15T08:23:43.793Z,98227.94
2023-04-15T08:24:45.424Z,98224.06
2023-04-15T08:25:46.965Z,98225.91
2023-04-15T08:26:48.684Z,98226.44
2023-04-15T08:27:50.230Z,98223.78
2023-04-15T08:28:51.818Z,98217.59
2023-04-15T08:29:53.343Z,98220.38
2023-04-15T08:30:54.949Z,98217.34
2023-04-15T08:31:56.614Z,98222.16
2023-04-15T08:32:58.288Z,98221.25
2023-04-15T08:33:59.916Z,98215.44
2023-04-15T08:35:01.461Z,98211.16
2023-04-15T08:36:03.069Z,98221.72
2023-04-15T08:37:04.643Z,98218.25
2023-04-15T08:38:06.192Z,98217.59
2023-04-15T08:39:07.859Z,98223.06
2023-04-15T08:40:10.814Z,98229.88
2023-04-15T08:41:21.824Z,98225.91
2023-04-15T08:42:37.423Z,98231.72
2023-04-15T08:43:52.673Z,98229.09
2023-04-15T08:44:55.423Z,98234.88
2023-04-15T08:45:59.209Z,98232.84
2023-04-15T08:47:01.784Z,98236.66
2023-04-15T08:48:05.461Z,98239.44
2023-04-15T08:49:10.571Z,98235.53
2023-04-15T08:50:12.616Z,98232.41
2023-04-15T08:51:14.355Z,98234.03
2023-04-15T08:52:15.932Z,98242.44
2023-04-15T08:53:18.089Z,98235.75
2023-04-15T08:54:19.782Z,98235.91
2023-04-15T08:55:21.851Z,98239.72
2023-04-15T08:56:25.956Z,98235.06
2023-04-15T08:57:31.742Z,98243.78
2023-04-15T08:58:33.387Z,98236.81
2023-04-15T08:59:35.007Z,98242.69
2023-04-15T09:00:36.752Z,98237.53
2023-04-15T09:01:38.486Z,98239.53
2023-04-15T09:02:41.051Z,98241.22
2023-04-15T09:03:43.786Z,98239.06
2023-04-15T09:04:45.573Z,98239.97
2023-04-15T09:05:47.664Z,98235.59
2023-04-15T09:06:49.198Z,98244.53
2023-04-15T09:07:51.390Z,98241.84
2023-04-15T09:08:52.976Z,98243.88
2023-04-15T09:09:54.550Z,98246.53
2023-04-15T09:10:56.090Z,98232.88
2023-04-15T09:11:57.650Z,98235.88
2023-04-15T09:12:59.323Z,98230.16
2023-04-15T09:14:00.885Z,98235.09
2023-04-15T09:15:04.037Z,98234.00
2023-04-15T09:16:06.546Z,98228.69
2023-04-15T09:17:10.526Z,98233.97
2023-04-15T09:18:12.694Z,98229.69
2023-04-15T09:19:22.676Z,98231.19
2023-04-15T09:20:24.297Z,98233.09
2023-04-15T09:21:26.089Z,98231.59
2023-04-15T09:22:32.689Z,98231.91
2023-04-15T09:23:35.840Z,98237.53
2023-04-15T09:24:39.531Z,98233.09
2023-04-15T09:25:42.106Z,98231.16
2023-04-15T09:26:43.778Z,98230.97
2023-04-15T09:27:53.171Z,98237.97
2023-04-15T09:29:03.784Z,98238.47
2023-04-15T09:30:09.101Z,98237.59
2023-04-15T09:31:10.808Z,98239.19
2023-04-15T09:32:13.776Z,98238.09
2023-04-15T09:33:15.349Z,98238.06
2023-04-15T09:34:17.145Z,98235.72
2023-04-15T09:35:19.192Z,98240.13
2023-04-15T09:36:20.729Z,98237.63
2023-04-15T09:37:35.585Z,98245.91
2023-04-15T09:38:54.936Z,98239.19
2023-04-15T09:39:56.502Z,98244.09
2023-04-15T09:40:59.049Z,98245.50
2023-04-15T09:42:08.096Z,98250.22
2023-04-15T09:43:10.778Z,98249.22
2023-04-15T09:44:25.624Z,98248.13
2023-04-15T09:45:29.576Z,98247.94
2023-04-15T09:46:44.833Z,98250.56
2023-04-15T09:47:46.439Z,98250.56
2023-04-15T09:49:07.819Z,98251.59
2023-04-15T09:50:09.719Z,98250.38
2023-04-15T09:51:11.339Z,98250.22
2023-04-15T09:52:14.464Z,98250.25
2023-04-15T09:53:18.763Z,98246.66
2023-04-15T09:54:20.472Z,98242.75
2023-04-15T09:55:22.187Z,98240.69
2023-04-15T09:56:23.739Z,98241.56
2023-04-15T09:57:25.493Z,98240.75
2023-04-15T09:58:28.797Z,98238.69
2023-04-15T09:59:30.313Z,98240.44
2023-04-15T10:00:32.862Z,98232.81
2023-04-15T10:01:34.893Z,98235.94
2023-04-15T10:02:37.980Z,98238.22
2023-04-15T10:03:40.913Z,98237.16
2023-04-15T10:04:43.257Z,98234.44
2023-04-15T10:05:46.640Z,98235.81
2023-04-15T10:06:48.222Z,98231.78
2023-04-15T10:07:49.898Z,98236.19
2023-04-15T10:08:51.486Z,98234.56
2023-04-15T10:09:53.788Z,98234.78
2023-04-15T10:10:55.431Z,98230.53
2023-04-15T10:11:56.984Z,98237.03
2023-04-15T10:12:58.785Z,98235.25
2023-04-15T10:14:01.222Z,98231.03
2023-04-15T10:15:06.586Z,98237.28
2023-04-15T10:16:14.342Z,98240.19
2023-04-15T10:17:18.139Z,98235.41
2023-04-15T10:18:20.542Z,98230.44
2023-04-15T10:19:27.458Z,98228.41
2023-04-15T10:20:29.707Z,98229.34
2023-04-15T10:21:31.269Z,98221.81
2023-04-15T10:22:33.114Z,98226.34
2023-04-15T10:23:35.039Z,98222.09
2023-04-15T10:24:38.871Z,98228.22
2023-04-15T10:25:41.039Z,98229.47
2023-04-15T10:26:42.868Z,98228.72
2023-04-15T10:27:45.152Z,98228.94
2023-04-15T10:28:47.176Z,98231.19
2023-04-15T10:29:50.667Z,98224.50
2023-04-15T10:30:52.944Z,98227.53
2023-04-15T10:31:56.405Z,98222.22
2023-04-15T10:32:58.353Z,98223.78
2023-04-15T10:34:00.525Z,98220.59
2023-04-15T10:35:02.617Z,98227.31
2023-04-15T10:36:04.757Z,98220.34
2023-04-15T10:37:09.961Z,98228.31
2023-04-15T10:38:36.136Z,98224.22
2023-04-15T10:39:37.643Z,98226.06
2023-04-15T10:40:39.736Z,98226.34
2023-04-15T10:41:41.330Z,98223.50
2023-04-15T10:42:42.872Z,98224.03
2023-04-15T10:43:52.717Z,98217.06
2023-04-15T10:44:57.074Z,98230.00
2023-04-15T10:45:58.727Z,98221.69
2023-04-15T10:47:00.390Z,98229.06
2023-04-15T10:48:04.006Z,98226.59
2023-04-15T10:49:09.344Z,98221.41
2023-04-15T10:50:11.118Z,98223.41
2023-04-15T10:51:14.173Z,98229.25
2023-04-15T10:52:17.778Z,98225.09
2023-04-15T10:53:30.320Z,98227.22
2023-04-15T10:54:34.459Z,98227.94
2023-04-15T10:55:36.626Z,98223.53
2023-04-15T10:56:38.234Z,98224.41
2023-04-15T10:57:40.969Z,98225.00
2023-04-15T10:58:43.464Z,98220.72
2023-04-15T11:00:02.831Z,98224.06
2023-04-15T11:01:04.517Z,98222.50
2023-04-15T11:02:07.355Z,98217.13
2023-04-15T11:03:09.911Z,98221.63
2023-04-15T11:04:11.775Z,98217.84
2023-04-15T11:05:15.462Z,98213.88
2023-04-15T11:06:17.137Z,98226.25
2023-04-15T11:07:40.692Z,98215.00
2023-04-15T11:08:59.938Z,98217.47
2023-04-15T11:10:01.680Z,98219.38
2023-04-15T11:11:03.937Z,98210.41
2023-04-15T11:12:09.545Z,98207.81
2023-04-15T11:13:11.062Z,98209.25
2023-04-15T11:14:16.363Z,98205.41
2023-04-15T11:15:33.615Z,98217.69
2023-04-15T11:16:42.879Z,98208.09
2023-04-15T11:17:46.518Z,98205.56
2023-04-15T11:18:55.466Z,98208.31
2023-04-15T11:19:58.104Z,98200.44
2023-04-15T11:21:05.145Z,98207.34
2023-04-15T11:22:08.526Z,98212.47
2023-04-15T11:23:14.334Z,98211.81
2023-04-15T11:24:25.713Z,98218.81
2023-04-15T11:25:32.178Z,98214.97
2023-04-15T11:26:34.243Z,98219.53
2023-04-15T11:27:35.796Z,98219.56
2023-04-15T11:28:41.496Z,98209.84
2023-04-15T11:29:43.468Z,98217.69
2023-04-15T11:30:45.251Z,98213.22
2023-04-15T11:31:47.640Z,98226.31
2023-04-15T11:32:54.187Z,98211.41
2023-04-15T11:33:59.155Z,98216.50
2023-04-15T11:35:01.312Z,98223.25
2023-04-15T11:36:03.333Z,98223.09
2023-04-15T11:37:06.440Z,98217.78
2023-04-15T11:38:12.619Z,98221.25
2023-04-15T11:39:14.205Z,98220.22
2023-04-15T11:40:16.728Z,98221.50
2023-04-15T11:41:24.228Z,98224.72
2023-04-15T11:42:28.242Z,98231.16
2023-04-15T11:43:35.249Z,98227.84
2023-04-15T11:44:36.889Z,98223.97
2023-04-15T11:45:48.832Z,98230.50
2023-04-15T11:46:50.777Z,98225.78
2023-04-15T11:47:52.388Z,98230.69
2023-04-15T11:48:53.972Z,98228.44
2023-04-15T11:49:55.593Z,98230.91
2023-04-15T11:51:05.614Z,98227.25
2023-04-15T11:52:13.238Z,98233.41
2023-04-15T11:53:15.097Z,98232.88
2023-04-15T11:56:56.882Z,98236.81
2023-04-15T11:58:11.397Z,98233.44
2023-04-15T11:59:15.401Z,98239.03
2023-04-15T12:00:17.288Z,98238.34
2023-04-15T12:01:19.322Z,98233.94
2023-04-15T12:02:21.343Z,98231.53
2023-04-15T12:03:30.911Z,98236.38
2023-04-15T12:04:33.079Z,98234.16
2023-04-15T12:05:34.959Z,98231.09
2023-04-15T12:06:36.668Z,98228.47
2023-04-15T12:08:00.609Z,98232.63
2023-04-15T12:09:13.312Z,98231.03
2023-04-15T12:10:15.071Z,98230.06
2023-04-15T12:11:28.554Z,98236.38
2023-04-15T12:12:30.120Z,98238.00
2023-04-15T12:13:31.716Z,98235.94
2023-04-15T12:14:33.869Z,98236.22
2023-04-15T12:15:41.371Z,98239.13
2023-04-15T12:16:47.851Z,98231.22
2023-04-15T12:17:54.428Z,98236.31
2023-04-15T12:22:57.159Z,98238.31